Time;durP1;ratioP1;P1;durP2;ratioP2;P2;SDS_P1;SDS_P2;PMS_P1;PMS_P2;Temp;Humidity;BMP_temperature;BMP_pressure;BME280_temperature;BME280_humidity;BME280_pressure;Samples;Min_cycle;Max_cycle;Signal;HPM_P1;HPM_P2
2022/03/09 00:00:57;;;;;;;6.53;5.88;;;1.60;77.50;;;;;;5054746;28;20028;-60
2022/03/09 00:03:23;;;;;;;7.15;6.45;;;1.60;77.20;;;;;;5054778;28;20036;-60
2022/03/09 00:05:49;;;;;;;6.97;6.28;;;1.60;77.40;;;;;;5067076;28;20024;-60
2022/03/09 00:08:15;;;;;;;6.80;6.10;;;1.50;77.30;;;;;;5070041;28;20538;-60
2022/03/09 00:10:40;;;;;;;7.90;5.82;;;1.50;77.10;;;;;;5074178;28;20036;-60
2022/03/09 00:13:06;;;;;;;7.38;6.20;;;1.60;77.30;;;;;;5042804;28;20027;-60
2022/03/09 00:15:32;;;;;;;7.13;6.22;;;1.50;76.90;;;;;;5074386;28;20078;-60
2022/03/09 00:17:58;;;;;;;6.85;6.10;;;1.60;77.10;;;;;;5073863;28;20028;-60
2022/03/09 00:20:23;;;;;;;6.70;6.00;;;1.60;77.20;;;;;;5074628;28;20074;-60
2022/03/09 00:22:49;;;;;;;6.60;5.97;;;1.60;77.10;;;;;;5074430;28;20056;-60
2022/03/09 00:25:15;;;;;;;7.05;6.18;;;1.60;76.90;;;;;;5064985;28;20530;-58
2022/03/09 00:27:41;;;;;;;7.70;6.15;;;1.60;76.70;;;;;;5072669;28;20484;-60
2022/03/09 00:30:07;;;;;;;6.53;5.65;;;1.60;76.80;;;;;;5061482;28;20550;-60
2022/03/09 00:32:37;;;;;;;7.35;6.60;;;1.60;76.90;;;;;;5066938;28;20442;-60
2022/03/09 00:35:03;;;;;;;8.07;6.50;;;1.60;76.80;;;;;;5067220;28;20052;-60
2022/03/09 00:37:28;;;;;;;7.90;5.90;;;1.70;76.90;;;;;;5073780;28;20032;-60
2022/03/09 00:39:54;;;;;;;7.53;6.75;;;1.70;76.80;;;;;;5073641;28;20044;-60
2022/03/09 00:42:20;;;;;;;7.25;6.10;;;1.60;76.90;;;;;;5072824;28;20054;-60
2022/03/09 00:44:46;;;;;;;7.68;6.90;;;1.70;76.80;;;;;;5074060;28;20020;-60
2022/03/09 00:47:12;;;;;;;7.65;6.68;;;1.70;76.60;;;;;;5073079;28;20028;-60
2022/03/09 00:49:37;;;;;;;8.18;6.55;;;1.70;76.60;;;;;;5073371;28;20113;-60
2022/03/09 00:52:03;;;;;;;7.72;6.90;;;1.70;76.30;;;;;;5063137;28;20090;-60
2022/03/09 00:54:29;;;;;;;7.15;6.38;;;1.60;76.20;;;;;;5058015;28;20021;-60
2022/03/09 00:56:55;;;;;;;7.57;6.72;;;1.60;76.40;;;;;;5060897;28;20485;-60
2022/03/09 00:59:20;;;;;;;8.30;6.65;;;1.60;76.30;;;;;;5068447;28;20094;-60
2022/03/09 01:01:46;;;;;;;7.78;6.90;;;1.60;76.40;;;;;;5073799;28;20353;-60
2022/03/09 01:04:12;;;;;;;8.25;6.68;;;1.60;76.30;;;;;;5073807;28;20035;-60
2022/03/09 01:06:38;;;;;;;7.30;6.50;;;1.60;76.40;;;;;;5069989;28;20028;-60
2022/03/09 01:09:03;;;;;;;7.95;6.57;;;1.60;76.50;;;;;;5073782;28;20039;-60
2022/03/09 01:11:29;;;;;;;8.02;7.22;;;1.60;76.30;;;;;;5072899;28;20115;-60
2022/03/09 01:13:57;;;;;;;8.55;7.13;;;1.60;76.40;;;;;;5065632;28;20025;-60
2022/03/09 01:16:23;;;;;;;9.15;7.15;;;1.60;76.60;;;;;;5065941;28;20036;-60
2022/03/09 01:18:48;;;;;;;7.57;5.00;;;1.60;76.50;;;;;;5066692;28;20033;-59
2022/03/09 01:21:14;;;;;;;7.50;6.70;;;1.50;76.50;;;;;;5073149;28;20025;-60
2022/03/09 01:23:40;;;;;;;7.75;6.78;;;1.50;76.90;;;;;;5073136;28;20025;-60
2022/03/09 01:26:06;;;;;;;8.30;7.28;;;1.50;76.90;;;;;;5072296;28;20024;-60
2022/03/09 01:28:32;;;;;;;8.55;7.22;;;1.50;76.60;;;;;;5073040;28;20017;-60
2022/03/09 01:30:58;;;;;;;7.88;7.07;;;1.50;76.60;;;;;;5072684;28;20109;-60
2022/03/09 01:33:24;;;;;;;8.73;7.07;;;1.50;76.30;;;;;;5070983;28;20524;-60
2022/03/09 01:35:49;;;;;;;7.18;6.47;;;1.50;76.30;;;;;;5069296;28;20388;-60
2022/03/09 01:38:15;;;;;;;7.72;6.93;;;1.50;76.40;;;;;;5072203;28;20055;-60
2022/03/09 01:40:41;;;;;;;8.25;7.32;;;1.50;76.10;;;;;;5065209;28;20029;-60
2022/03/09 01:43:07;;;;;;;8.32;7.22;;;1.40;76.00;;;;;;5066625;28;20044;-60
2022/03/09 01:45:34;;;;;;;8.60;7.55;;;1.40;76.00;;;;;;5072036;28;20031;-60
2022/03/09 01:47:59;;;;;;;8.02;7.22;;;1.40;75.80;;;;;;5072463;28;20024;-60
2022/03/09 01:50:25;;;;;;;7.93;6.82;;;1.40;75.70;;;;;;5054291;28;20377;-60
2022/03/09 01:52:51;;;;;;;8.18;7.30;;;1.40;75.50;;;;;;5076766;28;20032;-60
2022/03/09 01:55:17;;;;;;;7.80;6.75;;;1.40;75.70;;;;;;5067897;28;20067;-60
2022/03/09 01:57:42;;;;;;;8.57;7.68;;;1.50;75.60;;;;;;5067763;28;20520;-60
2022/03/09 02:00:10;;;;;;;7.90;7.10;;;1.40;75.30;;;;;;5068717;28;20036;-60
2022/03/09 02:02:35;;;;;;;8.60;6.90;;;1.40;75.10;;;;;;5071582;28;20028;-60
2022/03/09 02:05:01;;;;;;;7.50;6.70;;;1.40;75.90;;;;;;5066400;28;20071;-60
2022/03/09 02:10:11;;;;;;;7.82;7.03;;;1.40;75.00;;;;;;5072514;28;20031;-60
2022/03/09 02:12:38;;;;;;;9.30;7.13;;;1.40;75.10;;;;;;5066795;28;20532;-60
2022/03/09 02:15:04;;;;;;;10.27;7.07;;;1.40;75.00;;;;;;5071975;28;20098;-60
2022/03/09 02:17:30;;;;;;;8.65;7.70;;;1.40;75.00;;;;;;5055069;28;20029;-60
2022/03/09 02:19:57;;;;;;;7.72;6.93;;;1.40;75.00;;;;;;5062541;28;20031;-60
2022/03/09 02:22:37;;;;;;;8.43;6.68;;;1.30;74.90;;;;;;5060853;28;20025;-60
2022/03/09 02:25:05;;;;;;;7.95;6.93;;;1.30;74.90;;;;;;5066719;28;20090;-60
2022/03/09 02:27:31;;;;;;;8.20;6.60;;;1.30;75.00;;;;;;5072166;28;20108;-60
2022/03/09 02:29:57;;;;;;;8.63;6.85;;;1.30;75.30;;;;;;5071415;28;20107;-60
2022/03/09 02:32:24;;;;;;;7.50;6.47;;;1.30;75.20;;;;;;5071430;28;20033;-60
2022/03/09 02:34:50;;;;;;;7.78;6.97;;;1.30;75.20;;;;;;5072057;28;20109;-60
2022/03/09 02:37:16;;;;;;;6.72;6.03;;;1.30;75.60;;;;;;5072333;28;20380;-60
2022/03/09 02:39:42;;;;;;;7.60;6.80;;;1.30;75.60;;;;;;5066839;28;20515;-60
2022/03/09 02:42:09;;;;;;;7.18;6.47;;;1.30;75.30;;;;;;5071689;28;20024;-60
2022/03/09 02:44:35;;;;;;;8.95;6.80;;;1.30;75.10;;;;;;5071741;28;20108;-60
2022/03/09 02:47:01;;;;;;;8.27;6.70;;;1.30;75.20;;;;;;5057091;28;20096;-59
2022/03/09 02:49:26;;;;;;;7.03;6.05;;;1.20;75.40;;;;;;5069518;28;20078;-60
2022/03/09 02:51:52;;;;;;;7.85;6.15;;;1.20;75.20;;;;;;5067585;28;20086;-60
2022/03/09 02:54:18;;;;;;;8.48;6.60;;;1.20;75.10;;;;;;5071385;28;20431;-60
2022/03/09 02:56:44;;;;;;;8.18;7.18;;;1.20;75.10;;;;;;5069841;28;20027;-60
2022/03/09 02:59:10;;;;;;;6.88;6.07;;;1.20;75.30;;;;;;5071537;28;20024;-60
2022/03/09 03:01:37;;;;;;;6.75;6.03;;;1.20;75.40;;;;;;5069641;28;20048;-60
2022/03/09 03:04:03;;;;;;;8.48;6.88;;;1.20;75.30;;;;;;5071593;28;20103;-60
2022/03/09 03:06:29;;;;;;;8.95;6.90;;;1.20;75.60;;;;;;5061873;28;20171;-60
2022/03/09 03:08:55;;;;;;;7.25;6.43;;;1.30;75.40;;;;;;5071179;28;20028;-60
2022/03/09 03:11:21;;;;;;;9.35;7.35;;;1.30;74.90;;;;;;5068578;28;20373;-60
2022/03/09 03:13:49;;;;;;;7.75;6.70;;;1.30;75.10;;;;;;5064477;28;20029;-60
2022/03/09 03:16:15;;;;;;;7.70;6.82;;;1.30;75.00;;;;;;5059989;28;20029;-60
2022/03/09 03:18:41;;;;;;;8.23;7.03;;;1.30;74.80;;;;;;5075402;28;20488;-60
2022/03/09 03:21:06;;;;;;;7.80;6.80;;;1.30;74.80;;;;;;5074785;28;20060;-60
2022/03/09 03:23:33;;;;;;;7.18;6.47;;;1.30;74.60;;;;;;5075131;28;20025;-60
2022/03/09 03:26:01;;;;;;;8.55;7.25;;;1.40;74.50;;;;;;5074821;28;20028;-60
2022/03/09 03:28:27;;;;;;;7.20;6.50;;;1.40;74.30;;;;;;5075384;28;20020;-60
2022/03/09 03:30:52;;;;;;;8.13;7.10;;;1.40;74.10;;;;;;5067818;28;20100;-60
2022/03/09 03:33:20;;;;;;;8.35;7.20;;;1.40;74.20;;;;;;5067533;28;20124;-60
2022/03/09 03:35:46;;;;;;;8.35;7.30;;;1.30;74.30;;;;;;5057192;28;20028;-60
2022/03/09 03:38:13;;;;;;;7.85;6.57;;;1.30;74.30;;;;;;5061707;28;20475;-60
2022/03/09 03:40:39;;;;;;;9.38;7.07;;;1.30;74.60;;;;;;5075163;28;20036;-59
2022/03/09 03:43:05;;;;;;;7.63;6.63;;;1.30;74.70;;;;;;5065676;28;20033;-60
2022/03/09 03:45:31;;;;;;;7.18;6.47;;;1.30;74.90;;;;;;5074633;28;20016;-60
2022/03/09 03:47:57;;;;;;;7.93;7.13;;;1.30;74.80;;;;;;5057705;28;20571;-60
2022/03/09 03:50:23;;;;;;;8.85;7.05;;;1.30;74.70;;;;;;5065653;28;20519;-60
2022/03/09 03:52:50;;;;;;;8.35;6.88;;;1.20;74.80;;;;;;5074619;28;20392;-59
2022/03/09 03:55:15;;;;;;;7.50;6.63;;;1.20;75.00;;;;;;5073661;28;20028;-60
2022/03/09 03:57:42;;;;;;;9.38;7.55;;;1.20;75.10;;;;;;5074926;28;20385;-60
2022/03/09 04:00:09;;;;;;;8.55;7.13;;;1.20;75.10;;;;;;5074421;28;20074;-60
2022/03/09 04:02:36;;;;;;;8.23;7.22;;;1.10;75.70;;;;;;5074110;28;20027;-60
2022/03/09 04:05:02;;;;;;;9.98;7.38;;;1.10;74.90;;;;;;5065527;28;20033;-60
2022/03/09 04:07:28;;;;;;;9.38;7.78;;;1.00;74.80;;;;;;5073016;28;20456;-60
2022/03/09 04:09:54;;;;;;;10.40;8.02;;;1.00;75.00;;;;;;5074613;28;20095;-60
2022/03/09 04:12:20;;;;;;;8.63;7.68;;;0.90;75.00;;;;;;5071572;28;20021;-60
2022/03/09 04:14:46;;;;;;;8.23;7.32;;;0.90;75.10;;;;;;5074210;28;20029;-59
2022/03/09 04:17:12;;;;;;;8.98;7.93;;;0.80;75.20;;;;;;5074410;28;20036;-60
2022/03/09 04:19:38;;;;;;;8.93;8.02;;;0.80;75.20;;;;;;5074594;28;20430;-60
2022/03/09 04:22:04;;;;;;;9.77;8.43;;;0.80;75.30;;;;;;5069157;28;20028;-60
2022/03/09 04:24:30;;;;;;;10.60;9.13;;;0.70;75.60;;;;;;5073889;28;20024;-60
2022/03/09 04:26:55;;;;;;;9.57;8.57;;;0.70;75.90;;;;;;5074325;28;20033;-60
2022/03/09 04:29:21;;;;;;;8.75;7.80;;;0.70;76.00;;;;;;5072561;28;20354;-60
2022/03/09 04:31:47;;;;;;;9.55;7.93;;;0.70;75.90;;;;;;5073935;28;20066;-60
2022/03/09 04:34:12;;;;;;;10.30;8.35;;;0.70;75.90;;;;;;5074618;28;20039;-59
2022/03/09 04:36:38;;;;;;;8.75;7.20;;;0.70;75.90;;;;;;5074025;28;20035;-60
2022/03/09 04:39:05;;;;;;;9.65;7.63;;;0.70;76.40;;;;;;5064972;28;20516;-60
2022/03/09 04:41:31;;;;;;;8.50;7.60;;;0.70;75.70;;;;;;5067869;28;20021;-60
2022/03/09 04:43:57;;;;;;;8.50;7.60;;;0.70;75.70;;;;;;5060629;28;20036;-60
2022/03/09 04:46:23;;;;;;;8.75;7.40;;;0.70;75.60;;;;;;5070527;28;20032;-60
2022/03/09 04:48:49;;;;;;;8.82;7.35;;;0.70;75.50;;;;;;5073643;28;20099;-60
2022/03/09 04:51:18;;;;;;;9.55;7.90;;;0.70;75.40;;;;;;5073709;28;20111;-60
2022/03/09 04:53:44;;;;;;;8.35;7.30;;;0.70;75.20;;;;;;5072008;28;20365;-60
2022/03/09 04:56:11;;;;;;;8.30;7.40;;;0.70;75.20;;;;;;5064012;28;20031;-60
2022/03/09 04:58:37;;;;;;;10.15;7.43;;;0.70;75.20;;;;;;5055758;28;20090;-60
2022/03/09 05:01:03;;;;;;;8.00;7.20;;;0.70;75.00;;;;;;5065374;28;20021;-60
2022/03/09 05:03:28;;;;;;;8.13;7.30;;;0.70;75.20;;;;;;5071145;28;20123;-60
2022/03/09 05:05:54;;;;;;;8.02;7.22;;;0.80;75.10;;;;;;5072734;28;20016;-60
2022/03/09 05:08:20;;;;;;;8.85;7.18;;;0.80;75.00;;;;;;5073111;28;20017;-60
2022/03/09 05:10:46;;;;;;;9.18;8.27;;;0.80;74.90;;;;;;5073031;28;20028;-60
2022/03/09 05:13:11;;;;;;;9.27;8.13;;;0.80;75.20;;;;;;5063428;28;20069;-60
2022/03/09 05:15:37;;;;;;;9.15;8.25;;;0.80;75.00;;;;;;5072185;28;20405;-60
2022/03/09 05:18:03;;;;;;;10.65;8.85;;;0.80;75.20;;;;;;5073375;28;20746;-60
2022/03/09 05:20:29;;;;;;;9.02;8.02;;;0.90;75.30;;;;;;5070747;28;20063;-60
2022/03/09 05:22:55;;;;;;;9.45;7.30;;;0.90;75.10;;;;;;5055932;28;20496;-60
2022/03/09 05:25:22;;;;;;;9.30;8.15;;;0.90;74.70;;;;;;5071176;28;20380;-60
2022/03/09 05:27:48;;;;;;;8.77;7.50;;;1.00;74.80;;;;;;5073063;28;20024;-60
2022/03/09 05:30:14;;;;;;;9.75;7.53;;;1.00;75.00;;;;;;5070955;28;20500;-60
2022/03/09 05:32:41;;;;;;;8.80;7.90;;;1.10;75.00;;;;;;5051326;28;20036;-60
2022/03/09 05:35:09;;;;;;;9.05;8.00;;;1.10;74.90;;;;;;5072954;28;20024;-60
2022/03/09 05:37:40;;;;;;;11.05;7.93;;;1.20;74.70;;;;;;5060408;28;20523;-60
2022/03/09 05:40:06;;;;;;;9.03;8.13;;;1.30;74.60;;;;;;5071883;28;20051;-60
2022/03/09 05:42:33;;;;;;;8.25;7.18;;;1.40;74.40;;;;;;5072451;28;20056;-60
2022/03/09 05:44:59;;;;;;;9.20;8.27;;;1.40;74.10;;;;;;5059873;28;20021;-60
2022/03/09 05:47:25;;;;;;;8.98;7.68;;;1.40;73.70;;;;;;5066680;28;20024;-60
2022/03/09 05:49:50;;;;;;;10.43;8.05;;;1.40;74.00;;;;;;5072743;28;20082;-60
2022/03/09 05:52:16;;;;;;;9.65;8.18;;;1.50;74.50;;;;;;5071787;28;20032;-60
2022/03/09 05:54:42;;;;;;;10.30;8.15;;;1.70;74.70;;;;;;5070802;28;20436;-60
2022/03/09 05:57:08;;;;;;;9.18;8.13;;;1.90;74.50;;;;;;5063647;28;20037;-60
2022/03/09 05:59:33;;;;;;;12.20;5.82;;;2.00;73.70;;;;;;5058517;28;20448;-60
2022/03/09 06:01:59;;;;;;;8.93;7.85;;;2.10;73.40;;;;;;5059746;28;20029;-60
2022/03/09 06:04:25;;;;;;;8.00;5.93;;;2.20;73.10;;;;;;5064671;28;20029;-60
2022/03/09 06:06:51;;;;;;;9.20;8.05;;;2.30;72.80;;;;;;5074963;28;20017;-60
2022/03/09 06:09:17;;;;;;;9.25;5.70;;;2.30;72.60;;;;;;5062492;28;20066;-60
2022/03/09 06:11:43;;;;;;;8.23;6.10;;;2.20;72.20;;;;;;5072233;28;20028;-60
2022/03/09 06:14:09;;;;;;;8.45;7.47;;;2.10;72.30;;;;;;5061410;28;20074;-60
2022/03/09 06:16:34;;;;;;;9.07;7.90;;;2.10;72.20;;;;;;5072173;28;20040;-60
2022/03/09 06:19:00;;;;;;;8.55;6.25;;;2.20;71.90;;;;;;5072140;28;20099;-60
2022/03/09 06:21:26;;;;;;;7.63;5.47;;;2.00;71.80;;;;;;5070570;28;20035;-60
2022/03/09 06:23:52;;;;;;;8.45;7.38;;;2.00;72.30;;;;;;5071525;28;20020;-60
2022/03/09 06:26:17;;;;;;;10.20;8.40;;;2.00;72.10;;;;;;5072367;28;20053;-60
2022/03/09 06:28:43;;;;;;;10.68;8.70;;;2.00;71.70;;;;;;5071619;28;20078;-60
2022/03/09 06:31:09;;;;;;;9.02;8.13;;;2.00;71.50;;;;;;5070954;28;20060;-60
2022/03/09 06:33:35;;;;;;;10.27;8.95;;;1.90;71.30;;;;;;5062871;28;20035;-60
2022/03/09 06:36:01;;;;;;;10.40;5.22;;;1.90;71.50;;;;;;5061972;28;20029;-60
2022/03/09 06:38:26;;;;;;;9.35;7.75;;;1.70;71.70;;;;;;5066818;28;20074;-59
2022/03/09 06:40:52;;;;;;;8.95;7.72;;;1.70;71.70;;;;;;5057886;28;20118;-59
2022/03/09 06:43:18;;;;;;;8.13;7.00;;;1.80;71.50;;;;;;5074139;28;20096;-59
2022/03/09 06:45:44;;;;;;;7.93;5.05;;;1.70;71.10;;;;;;5066400;28;20636;-59
2022/03/09 06:48:10;;;;;;;8.15;7.35;;;1.50;71.10;;;;;;5075645;28;20025;-59
2022/03/09 06:50:35;;;;;;;9.88;5.50;;;1.50;71.30;;;;;;5072012;28;20031;-59
2022/03/09 06:53:01;;;;;;;8.13;6.88;;;1.40;71.40;;;;;;5080187;28;20060;-59
2022/03/09 06:55:27;;;;;;;8.65;7.25;;;1.40;71.80;;;;;;5072882;28;20035;-60
2022/03/09 06:57:53;;;;;;;7.60;6.80;;;1.40;71.70;;;;;;5075339;28;20033;-60
2022/03/09 07:00:19;;;;;;;9.52;8.32;;;1.30;71.70;;;;;;5073001;28;20048;-59
2022/03/09 07:02:46;;;;;;;8.93;8.00;;;1.30;71.90;;;;;;5069434;28;20547;-59
2022/03/09 07:05:12;;;;;;;9.15;8.10;;;1.30;72.10;;;;;;5070971;28;20028;-59
2022/03/09 07:07:39;;;;;;;9.32;8.00;;;1.30;71.80;;;;;;5076968;28;20556;-60
2022/03/09 07:10:10;;;;;;;9.43;8.02;;;1.30;71.90;;;;;;5079593;28;20077;-59
2022/03/09 07:12:38;;;;;;;9.80;5.97;;;1.30;71.90;;;;;;5064775;28;20044;-60
2022/03/09 07:15:04;;;;;;;9.43;7.68;;;1.20;72.10;;;;;;5062671;28;20353;-59
2022/03/09 07:17:30;;;;;;;9.25;7.70;;;1.30;72.40;;;;;;5064712;28;20047;-60
2022/03/09 07:19:55;;;;;;;9.73;7.95;;;1.30;72.30;;;;;;5066559;28;20024;-59
2022/03/09 07:22:21;;;;;;;8.98;7.65;;;1.40;72.10;;;;;;5062006;28;20104;-60
2022/03/09 07:24:47;;;;;;;8.85;7.95;;;1.40;72.00;;;;;;5066157;28;20595;-59
2022/03/09 07:27:13;;;;;;;10.45;8.02;;;1.40;71.80;;;;;;5062939;28;20028;-60
2022/03/09 07:29:38;;;;;;;9.13;7.97;;;1.50;71.90;;;;;;5062112;28;20031;-59
2022/03/09 07:32:05;;;;;;;11.05;6.13;;;1.60;71.90;;;;;;5066523;28;20036;-60
2022/03/09 07:34:31;;;;;;;8.90;7.85;;;1.60;71.90;;;;;;5066267;28;20024;-59
2022/03/09 07:36:58;;;;;;;8.77;7.45;;;1.60;72.00;;;;;;5069507;28;20480;-59
2022/03/09 07:39:28;;;;;;;8.95;5.93;;;1.70;71.80;;;;;;5070263;28;20041;-60
2022/03/09 07:41:54;;;;;;;9.02;7.40;;;1.70;71.50;;;;;;5065491;28;20020;-61
2022/03/09 07:44:21;;;;;;;8.77;5.93;;;1.80;71.60;;;;;;5072943;28;20020;-61
2022/03/09 07:46:46;;;;;;;6.82;4.93;;;1.80;71.50;;;;;;5071413;28;20400;-61
2022/03/09 07:49:12;;;;;;;6.32;4.35;;;1.70;71.90;;;;;;5061996;28;20029;-63
2022/03/09 07:51:38;;;;;;;7.63;6.03;;;1.80;71.80;;;;;;5057397;28;20044;-63
2022/03/09 07:54:04;;;;;;;7.43;6.63;;;1.90;71.50;;;;;;5053155;28;20388;-63
2022/03/09 07:56:30;;;;;;;6.68;5.07;;;2.00;71.10;;;;;;5059889;28;20377;-63
2022/03/09 07:58:55;;;;;;;7.47;5.82;;;2.00;70.80;;;;;;5058889;28;20036;-63
2022/03/09 08:01:21;;;;;;;6.40;4.28;;;2.00;70.60;;;;;;5061997;28;20033;-63
2022/03/09 08:03:47;;;;;;;8.93;6.88;;;2.00;70.40;;;;;;5061629;28;20032;-65
2022/03/09 08:06:12;;;;;;;7.57;6.78;;;2.10;70.50;;;;;;5060918;28;20028;-64
2022/03/09 08:08:38;;;;;;;7.45;5.25;;;2.10;70.30;;;;;;5059968;28;20039;-62
2022/03/09 08:11:04;;;;;;;8.35;5.38;;;2.10;71.00;;;;;;5063219;28;20032;-63
2022/03/09 08:13:30;;;;;;;7.30;6.35;;;2.10;70.50;;;;;;5066012;28;20024;-63
2022/03/09 08:15:55;;;;;;;7.38;6.38;;;2.10;70.40;;;;;;5060116;28;20491;-63
2022/03/09 08:18:21;;;;;;;8.55;6.68;;;2.20;70.20;;;;;;5067034;28;20032;-63
2022/03/09 08:20:47;;;;;;;7.63;5.15;;;2.30;69.70;;;;;;5059831;28;21156;-64
2022/03/09 08:23:13;;;;;;;7.40;6.60;;;2.20;69.30;;;;;;5060163;28;20020;-63
2022/03/09 08:25:39;;;;;;;7.38;6.35;;;2.20;69.10;;;;;;5061674;28;20061;-62
2022/03/09 08:28:05;;;;;;;6.32;5.70;;;2.30;69.40;;;;;;5062055;28;20047;-64
2022/03/09 08:30:33;;;;;;;6.38;5.75;;;2.30;68.60;;;;;;5066129;28;20068;-63
2022/03/09 08:32:59;;;;;;;7.50;6.03;;;2.30;67.90;;;;;;5044788;28;20036;-62
2022/03/09 08:35:24;;;;;;;7.05;5.82;;;2.30;68.30;;;;;;5065706;28;20052;-63
2022/03/09 08:37:50;;;;;;;6.57;4.38;;;2.20;68.10;;;;;;5064904;28;20539;-65
2022/03/09 08:40:16;;;;;;;6.90;5.88;;;2.20;68.60;;;;;;5061511;28;20091;-63
2022/03/09 08:42:41;;;;;;;7.75;5.88;;;2.20;68.50;;;;;;5052325;28;20449;-64
2022/03/09 08:45:08;;;;;;;7.32;4.90;;;2.30;68.40;;;;;;5060286;28;20396;-62
2022/03/09 08:47:33;;;;;;;8.60;4.90;;;2.20;68.50;;;;;;5062142;28;20083;-62
2022/03/09 08:49:59;;;;;;;8.52;7.03;;;2.20;68.90;;;;;;5056985;28;20036;-62
2022/03/09 08:52:25;;;;;;;8.60;7.15;;;2.20;69.20;;;;;;5056155;28;20047;-61
2022/03/09 08:54:53;;;;;;;6.22;4.95;;;2.30;69.00;;;;;;5060372;28;20106;-62
2022/03/09 08:57:22;;;;;;;7.57;6.43;;;2.30;69.00;;;;;;5060332;28;20032;-63
2022/03/09 08:59:48;;;;;;;7.03;4.80;;;2.40;68.90;;;;;;5052530;28;20106;-63
2022/03/09 09:02:15;;;;;;;7.95;6.63;;;2.30;68.90;;;;;;5062520;28;20028;-63
2022/03/09 09:04:41;;;;;;;8.88;7.32;;;2.40;69.30;;;;;;5063524;28;20055;-63
2022/03/09 09:07:07;;;;;;;8.90;6.75;;;2.50;68.60;;;;;;5055858;28;20055;-63
2022/03/09 09:09:33;;;;;;;7.80;7.00;;;2.60;68.60;;;;;;5060484;28;20021;-64
2022/03/09 09:12:01;;;;;;;6.85;4.70;;;2.70;68.20;;;;;;5053388;28;20056;-64
2022/03/09 09:14:28;;;;;;;7.57;6.78;;;2.70;68.30;;;;;;5053831;28;21044;-65
2022/03/09 09:16:54;;;;;;;6.75;4.80;;;2.70;68.30;;;;;;5054487;28;20028;-64
2022/03/09 09:19:21;;;;;;;8.50;6.93;;;2.70;68.20;;;;;;5037734;28;20490;-65
2022/03/09 09:21:47;;;;;;;8.48;6.97;;;2.80;68.10;;;;;;5052982;28;20024;-64
2022/03/09 09:24:14;;;;;;;7.55;6.63;;;2.90;67.80;;;;;;5048877;28;20715;-65
2022/03/09 09:26:40;;;;;;;9.27;4.97;;;2.90;67.60;;;;;;5054429;28;20115;-64
2022/03/09 09:29:09;;;;;;;7.22;6.43;;;2.80;67.50;;;;;;5055785;28;20532;-64
2022/03/09 09:31:35;;;;;;;7.88;5.30;;;2.90;67.60;;;;;;5054240;28;20086;-64
2022/03/09 09:34:04;;;;;;;7.90;7.05;;;2.80;67.60;;;;;;5051743;28;20041;-64
2022/03/09 09:36:41;;;;;;;7.60;6.78;;;2.90;68.10;;;;;;5030749;28;20176;-64
2022/03/09 09:39:07;;;;;;;7.30;5.35;;;3.00;67.70;;;;;;5029387;28;20093;-63
2022/03/09 09:41:33;;;;;;;7.55;6.53;;;2.90;67.70;;;;;;5034228;28;20036;-63
2022/03/09 09:44:00;;;;;;;7.43;5.35;;;3.00;67.60;;;;;;5030738;28;20021;-63
2022/03/09 09:46:27;;;;;;;7.32;6.57;;;3.00;67.60;;;;;;5030762;28;20090;-63
2022/03/09 09:48:53;;;;;;;7.82;5.15;;;3.00;67.70;;;;;;5029461;28;20065;-64
2022/03/09 09:51:22;;;;;;;6.60;4.78;;;3.00;67.80;;;;;;5032911;28;20029;-64
2022/03/09 09:53:48;;;;;;;6.30;4.25;;;2.90;67.80;;;;;;5031684;28;20099;-64
2022/03/09 09:56:14;;;;;;;7.60;6.40;;;2.90;68.00;;;;;;5033134;28;20044;-63
2022/03/09 09:58:42;;;;;;;8.38;5.07;;;2.90;67.80;;;;;;5033645;28;20025;-63
2022/03/09 10:01:08;;;;;;;5.30;4.18;;;2.90;67.60;;;;;;5027138;28;20025;-63
2022/03/09 10:03:35;;;;;;;6.43;5.40;;;2.90;67.70;;;;;;5025073;28;20442;-62
2022/03/09 10:06:01;;;;;;;6.95;4.57;;;3.00;67.80;;;;;;5032417;28;20160;-62
2022/03/09 10:08:27;;;;;;;6.47;5.65;;;3.00;67.20;;;;;;5032935;28;20039;-62
2022/03/09 10:11:03;;;;;;;7.55;4.65;;;3.00;67.10;;;;;;5031817;28;20029;-62
2022/03/09 10:13:35;;;;;;;6.97;6.15;;;3.00;67.10;;;;;;5032665;28;20044;-62
2022/03/09 10:16:20;;;;;;;8.38;4.40;;;3.00;67.00;;;;;;5032914;28;20037;-63
2022/03/09 10:18:57;;;;;;;7.47;4.82;;;3.00;67.10;;;;;;5036412;28;20040;-62
2022/03/09 10:21:26;;;;;;;8.13;4.47;;;3.00;67.40;;;;;;5027851;28;20070;-63
2022/03/09 10:24:01;;;;;;;6.63;5.13;;;3.00;67.70;;;;;;5026240;28;20036;-63
2022/03/09 10:26:40;;;;;;;6.43;4.35;;;3.10;66.50;;;;;;5027178;28;20580;-63
2022/03/09 10:29:11;;;;;;;5.32;4.82;;;3.00;65.90;;;;;;5026652;28;20376;-64
2022/03/09 10:31:42;;;;;;;6.22;5.10;;;3.00;65.70;;;;;;5033049;28;20525;-65
2022/03/09 10:34:12;;;;;;;5.72;5.07;;;3.10;65.70;;;;;;5038648;28;20037;-64
2022/03/09 10:36:54;;;;;;;5.90;5.30;;;3.10;65.50;;;;;;5032036;28;20039;-64
2022/03/09 10:39:22;;;;;;;5.57;5.05;;;3.20;65.40;;;;;;5039106;28;20022;-65
2022/03/09 10:41:47;;;;;;;6.60;4.22;;;3.20;65.30;;;;;;5033280;28;20028;-64
2022/03/09 10:44:13;;;;;;;6.35;5.30;;;3.10;65.10;;;;;;5032121;28;20412;-65
2022/03/09 10:46:47;;;;;;;6.30;3.83;;;3.10;65.40;;;;;;5028542;28;20443;-65
2022/03/09 10:49:16;;;;;;;5.40;4.70;;;3.10;65.70;;;;;;5020167;28;20029;-65
2022/03/09 10:51:52;;;;;;;5.10;3.90;;;3.10;65.70;;;;;;5018538;28;20048;-63
2022/03/09 10:54:25;;;;;;;6.35;4.63;;;3.10;65.80;;;;;;5023897;28;20421;-64
2022/03/09 10:57:10;;;;;;;6.22;3.78;;;3.10;65.70;;;;;;5017908;28;20025;-62
2022/03/09 10:59:51;;;;;;;4.82;3.50;;;3.10;65.80;;;;;;5019947;28;20025;-62
2022/03/09 11:02:19;;;;;;;5.87;4.13;;;3.10;65.50;;;;;;5029427;28;20021;-64
2022/03/09 11:05:09;;;;;;;5.57;4.65;;;3.10;65.20;;;;;;5025881;28;20333;-64
2022/03/09 11:07:39;;;;;;;4.38;3.40;;;3.10;65.20;;;;;;5027073;28;20116;-63
2022/03/09 11:10:10;;;;;;;4.07;3.60;;;3.10;64.80;;;;;;5027224;28;20030;-65
2022/03/09 11:12:40;;;;;;;5.55;4.53;;;3.00;65.30;;;;;;5028600;28;20116;-64
2022/03/09 11:15:07;;;;;;;7.78;4.25;;;3.10;64.80;;;;;;5027243;28;20034;-64
2022/03/09 11:17:34;;;;;;;6.13;4.75;;;3.10;64.40;;;;;;5030830;28;20332;-64
2022/03/09 11:20:00;;;;;;;5.88;3.75;;;3.20;64.30;;;;;;5025122;28;20030;-63
2022/03/09 11:22:26;;;;;;;4.95;4.22;;;3.20;64.80;;;;;;5025148;28;20754;-63
2022/03/09 11:24:55;;;;;;;4.47;3.35;;;3.30;64.80;;;;;;5024728;28;20029;-63
2022/03/09 11:27:22;;;;;;;4.65;3.83;;;3.30;64.40;;;;;;5022682;28;20384;-63
2022/03/09 11:29:49;;;;;;;4.72;4.10;;;3.30;64.40;;;;;;5024671;28;20069;-65
2022/03/09 11:32:34;;;;;;;5.57;3.88;;;3.40;64.20;;;;;;5030314;28;20025;-64
2022/03/09 11:35:00;;;;;;;4.18;3.45;;;3.40;64.10;;;;;;5025661;28;20120;-65
2022/03/09 11:37:37;;;;;;;4.85;4.05;;;3.30;64.00;;;;;;5029324;28;20038;-64
2022/03/09 11:40:06;;;;;;;3.97;3.17;;;3.30;63.80;;;;;;5029133;28;20416;-65
2022/03/09 11:42:34;;;;;;;6.05;4.53;;;3.30;63.90;;;;;;5029076;28;20075;-64
2022/03/09 11:45:15;;;;;;;6.47;4.47;;;3.40;63.60;;;;;;5033536;28;20026;-64
2022/03/09 11:48:03;;;;;;;7.53;3.90;;;3.50;63.10;;;;;;5028353;28;20033;-64
2022/03/09 11:50:32;;;;;;;4.13;3.20;;;3.50;63.20;;;;;;5026997;28;20025;-64
2022/03/09 11:53:00;;;;;;;4.57;4.10;;;3.50;63.50;;;;;;5026194;28;20021;-64
2022/03/09 11:55:27;;;;;;;4.82;3.58;;;3.60;63.10;;;;;;5022719;28;20037;-64
2022/03/09 11:57:55;;;;;;;4.15;3.03;;;3.50;62.80;;;;;;5019766;28;20026;-64
2022/03/09 12:00:22;;;;;;;4.97;4.25;;;3.50;62.80;;;;;;5019654;28;20041;-65
2022/03/09 12:02:55;;;;;;;4.80;4.07;;;3.50;63.00;;;;;;5022397;28;20045;-66
2022/03/09 12:05:39;;;;;;;5.82;3.53;;;3.50;62.50;;;;;;5019148;28;20029;-65
2022/03/09 12:08:06;;;;;;;3.95;3.55;;;3.40;62.50;;;;;;5020952;28;20026;-65
2022/03/09 12:10:47;;;;;;;4.72;3.55;;;3.50;62.00;;;;;;5018661;28;20478;-64
2022/03/09 12:13:33;;;;;;;4.70;4.20;;;3.50;62.00;;;;;;5023901;28;20037;-63
2022/03/09 12:16:05;;;;;;;3.70;2.90;;;3.50;62.10;;;;;;5028106;28;20035;-63
2022/03/09 12:18:40;;;;;;;4.90;4.30;;;3.50;62.30;;;;;;5018862;28;20489;-65
2022/03/09 12:21:07;;;;;;;4.25;3.13;;;3.50;62.60;;;;;;5021662;28;20033;-65
2022/03/09 12:23:34;;;;;;;3.95;3.28;;;3.50;62.80;;;;;;5023319;28;20496;-64
2022/03/09 12:26:01;;;;;;;4.22;3.83;;;3.40;63.80;;;;;;5021027;28;20656;-63
2022/03/09 12:28:34;;;;;;;7.03;3.70;;;3.50;62.70;;;;;;5019049;28;20036;-64
2022/03/09 12:31:20;;;;;;;3.97;2.80;;;3.40;62.50;;;;;;5015505;28;20029;-65
2022/03/09 12:33:52;;;;;;;4.90;4.18;;;3.40;62.70;;;;;;5022158;28;20030;-64
2022/03/09 12:36:24;;;;;;;5.30;3.30;;;3.40;62.90;;;;;;5022209;28;20067;-65
2022/03/09 12:38:58;;;;;;;4.63;4.07;;;3.30;63.70;;;;;;5022441;28;20025;-64
2022/03/09 12:41:41;;;;;;;4.38;3.92;;;3.30;64.60;;;;;;5020431;28;20018;-65
2022/03/09 12:44:12;;;;;;;4.72;4.28;;;3.20;65.40;;;;;;5018162;28;20083;-64
2022/03/09 12:46:40;;;;;;;4.60;4.10;;;3.20;65.80;;;;;;5014429;28;20029;-64
2022/03/09 12:49:10;;;;;;;4.18;3.45;;;3.20;65.30;;;;;;5026751;28;20065;-64
2022/03/09 12:51:39;;;;;;;3.78;3.20;;;3.20;65.20;;;;;;5016613;28;20034;-64
2022/03/09 12:54:05;;;;;;;4.25;3.78;;;3.20;65.20;;;;;;5020685;28;20510;-64
2022/03/09 12:56:31;;;;;;;4.05;3.67;;;3.20;65.10;;;;;;5022875;28;20492;-64
2022/03/09 12:59:14;;;;;;;4.47;3.95;;;3.20;64.90;;;;;;5027570;28;20022;-64